Time;durP1;ratioP1;P1;durP2;ratioP2;P2;SDS_P1;SDS_P2;PMS_P1;PMS_P2;Temp;Humidity;BMP_temperature;BMP_pressure;BME280_temperature;BME280_humidity;BME280_pressure;Samples;Min_cycle;Max_cycle;Signal;HPM_P1;HPM_P2
2022/06/20 00:02:21;;;;;;;2.40;1.10;;;;;;;;;;5045939;28;20059;-87
2022/06/20 00:04:48;;;;;;;3.92;1.00;;;;;;;;;;5048458;28;20032;-87
2022/06/20 00:07:14;;;;;;;4.90;0.90;;;;;;;;;;5024709;28;20033;-87
2022/06/20 00:09:39;;;;;;;3.75;0.93;;;;;;;;;;5034705;28;20168;-86
2022/06/20 00:12:06;;;;;;;2.95;1.10;;;;;;;;;;5019761;28;20020;-87
2022/06/20 00:14:34;;;;;;;4.28;1.05;;;;;;;;;;5054843;28;20024;-89
2022/06/20 00:17:02;;;;;;;2.28;0.75;;;;;;;;;;5040308;28;20081;-90
2022/06/20 00:19:30;;;;;;;1.90;0.40;;;;;;;;;;5021207;28;20032;-91
2022/06/20 00:21:55;;;;;;;3.80;1.08;;;;;;;;;;5055921;28;20028;-92
2022/06/20 00:24:24;;;;;;;3.80;0.93;;;;;;;;;;5028288;28;20051;-93
2022/06/20 00:26:52;;;;;;;4.30;0.75;;;;;;;;;;5038110;28;20056;-92
2022/06/20 00:29:18;;;;;;;4.15;1.00;;;;;;;;;;5035109;28;20035;-91
2022/06/20 00:31:47;;;;;;;3.45;0.77;;;;;;;;;;5047037;28;20036;-89
2022/06/20 00:34:15;;;;;;;2.80;0.60;;;;;;;;;;5037418;28;20040;-86
2022/06/20 00:36:42;;;;;;;2.13;0.63;;;;;;;;;;5021878;28;20032;-86
2022/06/20 00:39:09;;;;;;;5.72;0.88;;;;;;;;;;5028862;28;20048;-86
2022/06/20 00:41:35;;;;;;;5.63;1.33;;;;;;;;;;5029962;28;20032;-85
2022/06/20 00:44:02;;;;;;;4.20;1.70;;;;;;;;;;5039576;28;20062;-84
2022/06/20 00:46:51;;;;;;;5.38;1.10;;;;;;;;;;5052777;28;20502;-83
2022/06/20 00:49:32;;;;;;;5.70;1.25;;;;;;;;;;5035864;28;20975;-83
2022/06/20 00:52:03;;;;;;;4.45;1.25;;;;;;;;;;5045505;28;20516;-83
2022/06/20 00:55:17;;;;;;;6.60;2.17;;;;;;;;;;5053894;28;20028;-83
2022/06/20 00:57:54;;;;;;;3.80;0.93;;;;;;;;;;5005908;28;20042;-84
2022/06/20 01:00:27;;;;;;;3.53;1.00;;;;;;;;;;5007363;28;20041;-85
2022/06/20 01:03:04;;;;;;;4.68;1.10;;;;;;;;;;5034797;28;20035;-84
2022/06/20 01:05:38;;;;;;;1.95;0.68;;;;;;;;;;5033911;28;20044;-86
2022/06/20 01:08:09;;;;;;;2.15;0.80;;;;;;;;;;5055294;28;20044;-84
2022/06/20 01:10:42;;;;;;;4.70;1.17;;;;;;;;;;5049761;28;20499;-84
2022/06/20 01:13:12;;;;;;;3.95;1.30;;;;;;;;;;5036019;28;20032;-85
2022/06/20 01:15:40;;;;;;;3.05;1.23;;;;;;;;;;5037350;28;20059;-84
2022/06/20 01:18:14;;;;;;;3.20;0.93;;;;;;;;;;5010749;28;20082;-84
2022/06/20 01:20:41;;;;;;;4.75;0.93;;;;;;;;;;5053696;28;20460;-84
2022/06/20 01:23:45;;;;;;;3.13;0.98;;;;;;;;;;5040620;28;20036;-83
2022/06/20 01:26:25;;;;;;;5.15;1.10;;;;;;;;;;5052793;28;20025;-83
2022/06/20 01:28:57;;;;;;;3.17;1.13;;;;;;;;;;5080887;28;20033;-83
2022/06/20 01:31:23;;;;;;;3.90;0.70;;;;;;;;;;5035824;28;20024;-83
2022/06/20 01:33:50;;;;;;;3.22;1.00;;;;;;;;;;5008833;28;20482;-84
2022/06/20 01:39:00;;;;;;;2.42;1.15;;;;;;;;;;5055531;28;20047;-84
2022/06/20 01:44:12;;;;;;;3.40;0.93;;;;;;;;;;5059387;28;20028;-84
2022/06/20 01:46:39;;;;;;;4.47;1.20;;;;;;;;;;5051282;28;20040;-82
2022/06/20 01:49:08;;;;;;;3.05;1.20;;;;;;;;;;5019936;28;20086;-83
2022/06/20 01:51:54;;;;;;;2.33;0.65;;;;;;;;;;5027879;28;20021;-84
2022/06/20 01:54:20;;;;;;;3.47;1.25;;;;;;;;;;5041212;28;20032;-84
2022/06/20 01:56:46;;;;;;;4.15;1.30;;;;;;;;;;5035200;28;20038;-85
2022/06/20 01:59:25;;;;;;;2.38;1.00;;;;;;;;;;5028250;28;20025;-85
2022/06/20 02:01:50;;;;;;;2.75;1.13;;;;;;;;;;5038268;28;20024;-86
2022/06/20 02:04:17;;;;;;;4.13;1.23;;;;;;;;;;5039026;28;20035;-84
2022/06/20 02:06:44;;;;;;;3.70;1.23;;;;;;;;;;5030859;28;20059;-85
2022/06/20 02:09:13;;;;;;;3.78;1.20;;;;;;;;;;5021402;28;20085;-85
2022/06/20 02:11:41;;;;;;;3.13;1.30;;;;;;;;;;5033263;28;20455;-85
2022/06/20 02:14:42;;;;;;;3.10;1.27;;;;;;;;;;5037296;28;20060;-86
2022/06/20 02:17:14;;;;;;;2.88;0.80;;;;;;;;;;5029916;28;20054;-86
2022/06/20 02:19:44;;;;;;;4.20;1.40;;;;;;;;;;5044390;28;20039;-86
2022/06/20 02:22:10;;;;;;;3.08;1.23;;;;;;;;;;5017691;28;20527;-86
2022/06/20 02:24:39;;;;;;;2.65;1.45;;;;;;;;;;5048264;28;20035;-87
2022/06/20 02:27:13;;;;;;;3.38;1.00;;;;;;;;;;5027372;28;20084;-87
2022/06/20 02:29:39;;;;;;;1.80;0.80;;;;;;;;;;5070786;28;20125;-87
2022/06/20 02:32:15;;;;;;;2.53;1.05;;;;;;;;;;5055169;28;20027;-86
2022/06/20 02:34:42;;;;;;;3.33;1.02;;;;;;;;;;5037875;28;20409;-86
2022/06/20 02:37:11;;;;;;;3.70;1.13;;;;;;;;;;5023295;28;20032;-87
2022/06/20 02:39:41;;;;;;;4.15;1.30;;;;;;;;;;5037322;28;20384;-87
2022/06/20 02:42:12;;;;;;;1.92;0.60;;;;;;;;;;5040976;28;20040;-88
2022/06/20 02:44:43;;;;;;;2.10;0.77;;;;;;;;;;5025390;28;20087;-86
2022/06/20 02:47:08;;;;;;;2.95;0.90;;;;;;;;;;5055269;28;20032;-86
2022/06/20 02:49:37;;;;;;;2.28;0.90;;;;;;;;;;5068757;28;20055;-87
2022/06/20 02:52:02;;;;;;;2.40;0.73;;;;;;;;;;5026596;28;20024;-88
2022/06/20 02:54:30;;;;;;;4.30;1.10;;;;;;;;;;5023148;28;20028;-88
2022/06/20 02:57:01;;;;;;;3.22;1.08;;;;;;;;;;5042049;28;20025;-88
2022/06/20 02:59:29;;;;;;;11.15;1.40;;;;;;;;;;5040990;28;20024;-88
2022/06/20 03:02:04;;;;;;;2.47;0.52;;;;;;;;;;5038145;28;20065;-88
2022/06/20 03:04:32;;;;;;;4.22;0.80;;;;;;;;;;5058745;28;20119;-87
2022/06/20 03:07:09;;;;;;;6.32;1.08;;;;;;;;;;5054628;28;20036;-89
2022/06/20 03:09:39;;;;;;;2.80;0.77;;;;;;;;;;5035991;28;20432;-89
2022/06/20 03:12:10;;;;;;;1.75;0.70;;;;;;;;;;5053010;28;20085;-89
2022/06/20 03:14:51;;;;;;;3.28;1.13;;;;;;;;;;5032762;28;20141;-90
2022/06/20 03:17:23;;;;;;;3.45;0.68;;;;;;;;;;5037200;28;20037;-90
2022/06/20 03:19:55;;;;;;;4.13;0.82;;;;;;;;;;5050004;28;20123;-89
2022/06/20 03:22:28;;;;;;;2.42;0.95;;;;;;;;;;5015604;28;20041;-90
2022/06/20 03:24:55;;;;;;;3.30;0.60;;;;;;;;;;5052509;28;20028;-89
2022/06/20 03:27:23;;;;;;;4.22;0.75;;;;;;;;;;5036956;28;20028;-89
2022/06/20 03:29:54;;;;;;;2.50;0.60;;;;;;;;;;5018600;28;20128;-87
2022/06/20 03:32:23;;;;;;;2.03;0.40;;;;;;;;;;5026537;28;20032;-86
2022/06/20 03:34:50;;;;;;;1.88;0.50;;;;;;;;;;5033446;28;20447;-84
2022/06/20 03:37:16;;;;;;;4.47;0.93;;;;;;;;;;5031113;28;20379;-85
2022/06/20 03:39:47;;;;;;;1.40;0.32;;;;;;;;;;5066431;28;20044;-84
2022/06/20 03:42:14;;;;;;;3.70;0.60;;;;;;;;;;5052333;28;20046;-84
2022/06/20 03:44:42;;;;;;;2.20;0.80;;;;;;;;;;5064761;28;20033;-84
2022/06/20 03:47:15;;;;;;;3.15;0.68;;;;;;;;;;5036050;28;20055;-86
2022/06/20 03:49:54;;;;;;;3.40;0.80;;;;;;;;;;5026060;28;20114;-87
2022/06/20 03:52:24;;;;;;;3.00;0.60;;;;;;;;;;5036888;28;20233;-87
2022/06/20 03:54:54;;;;;;;3.13;0.88;;;;;;;;;;5024743;28;20057;-87
2022/06/20 03:57:45;;;;;;;4.28;0.80;;;;;;;;;;5066423;28;20035;-87
2022/06/20 04:00:16;;;;;;;2.33;0.67;;;;;;;;;;5054433;28;20033;-86
2022/06/20 04:02:54;;;;;;;3.33;0.45;;;;;;;;;;5035765;28;20055;-86
2022/06/20 04:05:27;;;;;;;3.53;0.70;;;;;;;;;;5067659;28;20082;-86
2022/06/20 04:08:05;;;;;;;2.58;0.50;;;;;;;;;;5057626;28;20039;-87
2022/06/20 04:11:01;;;;;;;2.25;0.60;;;;;;;;;;5017759;28;20089;-86
2022/06/20 04:14:03;;;;;;;3.10;0.80;;;;;;;;;;5049591;28;20021;-86
2022/06/20 04:16:29;;;;;;;;;;;;;;;;;;5063014;28;20058;-86
2022/06/20 04:19:02;;;;;;;3.53;0.80;;;;;;;;;;5064685;28;19951;-87
2022/06/20 04:21:36;;;;;;;2.03;0.75;;;;;;;;;;5046733;28;20741;-87
2022/06/20 04:24:05;;;;;;;4.30;0.82;;;;;;;;;;5039904;28;20059;-86
2022/06/20 04:26:37;;;;;;;3.22;1.05;;;;;;;;;;5033622;28;20410;-88
2022/06/20 04:29:24;;;;;;;1.30;0.50;;;;;;;;;;5016842;28;20032;-88
2022/06/20 04:32:09;;;;;;;3.17;0.93;;;;;;;;;;5040592;28;20115;-87
2022/06/20 04:34:48;;;;;;;2.85;0.95;;;;;;;;;;5018418;28;20644;-87
2022/06/20 04:37:18;;;;;;;2.92;0.70;;;;;;;;;;5032413;28;20079;-86
2022/06/20 04:40:11;;;;;;;4.00;1.27;;;;;;;;;;5045596;28;20044;-86
2022/06/20 04:42:57;;;;;;;3.78;0.90;;;;;;;;;;5059448;28;20036;-87
2022/06/20 04:45:37;;;;;;;2.50;0.95;;;;;;;;;;5043206;28;20577;-91
2022/06/20 04:48:17;;;;;;;3.40;0.75;;;;;;;;;;5039401;28;20032;-88
2022/06/20 04:50:48;;;;;;;3.72;0.88;;;;;;;;;;5019184;28;20190;-88
2022/06/20 04:53:15;;;;;;;3.35;0.73;;;;;;;;;;5042406;28;20534;-87
2022/06/20 04:55:49;;;;;;;4.05;1.15;;;;;;;;;;5026153;28;20032;-89
2022/06/20 04:58:16;;;;;;;2.58;0.77;;;;;;;;;;5037445;28;20035;-89
2022/06/20 05:00:43;;;;;;;2.47;0.80;;;;;;;;;;5009109;28;20111;-90
2022/06/20 05:03:11;;;;;;;3.45;0.80;;;;;;;;;;5024919;28;20565;-85
2022/06/20 05:05:39;;;;;;;4.15;1.13;;;;;;;;;;5018826;28;20471;-86
2022/06/20 05:08:06;;;;;;;5.22;1.00;;;;;;;;;;5034459;28;20032;-87
2022/06/20 05:10:41;;;;;;;4.75;1.20;;;;;;;;;;5024424;28;20078;-84
2022/06/20 05:13:41;;;;;;;3.85;1.00;;;;;;;;;;5045299;28;20031;-83
2022/06/20 05:16:18;;;;;;;5.68;1.33;;;;;;;;;;5044386;28;20037;-84
2022/06/20 05:18:45;;;;;;;3.58;1.17;;;;;;;;;;5005659;28;20040;-85
2022/06/20 05:21:14;;;;;;;3.17;0.98;;;;;;;;;;5004406;28;20065;-87
2022/06/20 05:23:50;;;;;;;3.40;1.27;;;;;;;;;;5004505;28;20084;-86
2022/06/20 05:26:42;;;;;;;7.28;1.20;;;;;;;;;;5021048;28;20044;-85
2022/06/20 05:29:30;;;;;;;6.75;1.80;;;;;;;;;;5048888;28;20049;-85
2022/06/20 05:31:56;;;;;;;3.10;1.35;;;;;;;;;;5053179;28;20528;-85
2022/06/20 05:34:33;;;;;;;7.57;1.58;;;;;;;;;;5020990;28;20048;-84
2022/06/20 05:37:08;;;;;;;4.18;1.02;;;;;;;;;;5053267;28;20044;-84
2022/06/20 05:39:37;;;;;;;4.90;1.83;;;;;;;;;;5041162;28;20090;-84
2022/06/20 05:42:03;;;;;;;5.38;1.25;;;;;;;;;;5030468;28;20058;-85
2022/06/20 05:44:28;;;;;;;5.82;1.63;;;;;;;;;;5057021;28;20042;-85
2022/06/20 05:47:00;;;;;;;6.38;2.00;;;;;;;;;;5036737;28;20040;-85
2022/06/20 05:49:29;;;;;;;3.35;0.75;;;;;;;;;;5004496;28;20032;-85
2022/06/20 05:51:55;;;;;;;4.05;0.90;;;;;;;;;;5036820;28;20028;-85
2022/06/20 05:54:26;;;;;;;4.85;1.50;;;;;;;;;;5022620;28;20402;-85
2022/06/20 05:56:55;;;;;;;5.60;1.20;;;;;;;;;;5019886;28;20120;-85
2022/06/20 05:59:31;;;;;;;4.85;0.98;;;;;;;;;;5002243;28;20036;-85
2022/06/20 06:02:12;;;;;;;6.32;1.48;;;;;;;;;;5020247;28;20120;-84
2022/06/20 06:04:41;;;;;;;3.95;1.30;;;;;;;;;;5008418;28;20498;-87
2022/06/20 06:07:13;;;;;;;5.65;1.30;;;;;;;;;;5025173;28;20066;-86
2022/06/20 06:09:53;;;;;;;3.70;1.05;;;;;;;;;;5008694;28;20513;-86
2022/06/20 06:12:41;;;;;;;3.88;1.30;;;;;;;;;;5057636;28;20074;-87
2022/06/20 06:15:16;;;;;;;3.67;1.10;;;;;;;;;;5043941;28;20052;-86
2022/06/20 06:17:48;;;;;;;8.20;1.90;;;;;;;;;;5024354;28;20029;-85
2022/06/20 06:20:19;;;;;;;7.75;1.38;;;;;;;;;;5024253;28;20516;-86
2022/06/20 06:22:46;;;;;;;6.72;1.15;;;;;;;;;;5041966;28;20069;-87
2022/06/20 06:25:37;;;;;;;8.02;1.33;;;;;;;;;;5027615;28;20107;-85
2022/06/20 06:28:12;;;;;;;3.80;0.90;;;;;;;;;;5043468;28;20077;-85
2022/06/20 06:31:02;;;;;;;3.47;0.90;;;;;;;;;;5060992;28;20036;-85
2022/06/20 06:33:43;;;;;;;3.80;1.10;;;;;;;;;;5045960;28;20032;-85
2022/06/20 06:36:19;;;;;;;5.10;1.05;;;;;;;;;;5028742;28;20169;-84
2022/06/20 06:38:51;;;;;;;5.82;1.40;;;;;;;;;;5060578;28;20073;-85
2022/06/20 06:41:38;;;;;;;7.05;1.20;;;;;;;;;;5037291;28;20166;-85
2022/06/20 06:44:30;;;;;;;4.13;1.00;;;;;;;;;;5024324;28;20452;-85
2022/06/20 06:46:56;;;;;;;4.20;1.55;;;;;;;;;;5041457;28;20039;-85
2022/06/20 06:49:33;;;;;;;4.57;0.90;;;;;;;;;;5051213;28;20131;-86
2022/06/20 06:52:02;;;;;;;5.30;1.15;;;;;;;;;;5043612;28;20036;-86
2022/06/20 06:54:41;;;;;;;3.47;1.02;;;;;;;;;;5060567;28;20032;-87
2022/06/20 06:57:32;;;;;;;4.20;0.98;;;;;;;;;;5077124;28;20081;-85
2022/06/20 07:00:04;;;;;;;2.25;0.85;;;;;;;;;;5045297;28;20040;-85
2022/06/20 07:02:32;;;;;;;3.22;1.10;;;;;;;;;;5059862;28;20425;-85
2022/06/20 07:05:03;;;;;;;3.25;0.68;;;;;;;;;;5043377;28;20047;-85
2022/06/20 07:07:34;;;;;;;4.22;1.17;;;;;;;;;;5027142;28;20039;-85
2022/06/20 07:09:59;;;;;;;3.03;1.30;;;;;;;;;;5060415;28;20031;-84
2022/06/20 07:12:35;;;;;;;5.30;1.10;;;;;;;;;;5043218;28;20547;-85
2022/06/20 07:15:13;;;;;;;4.07;1.00;;;;;;;;;;5059986;28;20031;-84
2022/06/20 07:17:57;;;;;;;3.53;0.85;;;;;;;;;;5059267;28;20036;-84
2022/06/20 07:20:28;;;;;;;4.18;0.80;;;;;;;;;;5026230;28;20089;-85
2022/06/20 07:22:54;;;;;;;3.17;1.10;;;;;;;;;;5041011;28;20043;-83
2022/06/20 07:25:34;;;;;;;4.05;0.90;;;;;;;;;;5022828;28;20059;-84
2022/06/20 07:28:23;;;;;;;5.10;1.42;;;;;;;;;;5024196;28;20043;-84
2022/06/20 07:30:52;;;;;;;5.65;1.13;;;;;;;;;;5041167;28;20052;-84
2022/06/20 07:33:21;;;;;;;4.40;1.30;;;;;;;;;;5006518;28;20067;-83
2022/06/20 07:35:49;;;;;;;5.65;1.20;;;;;;;;;;5023035;28;20033;-84
2022/06/20 07:38:20;;;;;;;5.57;1.13;;;;;;;;;;5022436;28;20039;-84
2022/06/20 07:41:01;;;;;;;4.70;1.40;;;;;;;;;;5081760;28;20084;-84
2022/06/20 07:43:38;;;;;;;3.35;0.90;;;;;;;;;;5048717;28;20278;-84
2022/06/20 07:46:12;;;;;;;5.07;1.40;;;;;;;;;;5025797;28;20613;-85
2022/06/20 07:48:39;;;;;;;3.70;1.10;;;;;;;;;;5042303;28;20077;-85
2022/06/20 07:51:08;;;;;;;5.72;1.48;;;;;;;;;;5025976;28;20028;-84
2022/06/20 07:53:34;;;;;;;2.63;0.82;;;;;;;;;;5075820;28;20082;-84
2022/06/20 07:56:12;;;;;;;4.57;1.50;;;;;;;;;;5058660;28;20043;-84
2022/06/20 07:58:41;;;;;;;4.97;1.33;;;;;;;;;;5025711;28;20040;-84
2022/06/20 08:01:14;;;;;;;3.30;1.08;;;;;;;;;;5058638;28;20028;-84
2022/06/20 08:03:43;;;;;;;3.90;1.10;;;;;;;;;;5026337;28;20024;-85
2022/06/20 08:06:17;;;;;;;3.05;0.95;;;;;;;;;;5026093;28;20078;-86
2022/06/20 08:08:46;;;;;;;2.72;0.70;;;;;;;;;;5058607;28;20036;-84
2022/06/20 08:11:40;;;;;;;2.60;1.08;;;;;;;;;;5041589;28;20044;-86
2022/06/20 08:14:10;;;;;;;4.13;1.10;;;;;;;;;;5031018;28;20036;-86
2022/06/20 08:16:35;;;;;;;5.35;1.38;;;;;;;;;;5041588;28;20032;-86
2022/06/20 08:19:01;;;;;;;5.07;1.35;;;;;;;;;;5042234;28;20081;-86
2022/06/20 08:21:33;;;;;;;3.63;1.58;;;;;;;;;;5025986;28;20452;-86
2022/06/20 08:24:05;;;;;;;5.72;2.40;;;;;;;;;;5055515;28;20458;-87
2022/06/20 08:26:33;;;;;;;5.57;1.92;;;;;;;;;;5022115;28;20131;-87
2022/06/20 08:29:00;;;;;;;8.30;2.55;;;;;;;;;;5005807;28;20029;-87
2022/06/20 08:31:34;;;;;;;6.63;2.38;;;;;;;;;;5038325;28;20028;-86
2022/06/20 08:34:16;;;;;;;6.32;2.28;;;;;;;;;;5038829;28;20039;-88
2022/06/20 08:36:46;;;;;;;8.48;2.38;;;;;;;;;;5027044;28;20040;-87
2022/06/20 08:39:21;;;;;;;6.00;2.17;;;;;;;;;;5072138;28;20509;-89
2022/06/20 08:41:56;;;;;;;10.60;3.42;;;;;;;;;;5056921;28;20516;-88
2022/06/20 08:44:36;;;;;;;5.97;2.95;;;;;;;;;;5075330;28;20028;-88
2022/06/20 08:47:18;;;;;;;7.18;1.98;;;;;;;;;;5055426;28;20040;-86
2022/06/20 08:49:51;;;;;;;5.97;1.65;;;;;;;;;;5022457;28;20066;-87
2022/06/20 08:53:00;;;;;;;8.15;2.08;;;;;;;;;;5038513;28;20082;-88
2022/06/20 08:55:40;;;;;;;5.45;1.65;;;;;;;;;;4959102;28;20030;-88
2022/06/20 08:58:27;;;;;;;7.85;2.25;;;;;;;;;;4928054;28;20508;-88
2022/06/20 09:01:07;;;;;;;9.18;2.08;;;;;;;;;;5018998;28;20547;-89
2022/06/20 09:04:04;;;;;;;5.45;2.03;;;;;;;;;;5040547;28;20139;-89
2022/06/20 09:06:35;;;;;;;7.47;1.83;;;;;;;;;;5038190;28;20020;-88
2022/06/20 09:09:00;;;;;;;9.17;2.40;;;;;;;;;;5056995;28;20135;-88
2022/06/20 09:11:47;;;;;;;11.75;2.70;;;;;;;;;;5058361;28;20116;-89
2022/06/20 09:14:28;;;;;;;11.20;2.33;;;;;;;;;;5057954;28;20037;-88
2022/06/20 09:17:18;;;;;;;6.93;1.85;;;;;;;;;;5053534;28;20082;-88
2022/06/20 09:19:49;;;;;;;8.45;2.08;;;;;;;;;;5038294;28;20110;-88
2022/06/20 09:22:23;;;;;;;7.73;1.70;;;;;;;;;;5054496;28;20044;-87
2022/06/20 09:25:20;;;;;;;11.77;2.38;;;;;;;;;;5058644;28;20034;-86
2022/06/20 09:28:06;;;;;;;4.55;1.33;;;;;;;;;;5060797;28;20030;-88
2022/06/20 09:30:45;;;;;;;8.23;1.65;;;;;;;;;;5039094;28;20036;-88
2022/06/20 09:33:23;;;;;;;6.45;1.65;;;;;;;;;;5021422;28;20100;-88
2022/06/20 09:36:07;;;;;;;4.45;1.27;;;;;;;;;;5054633;28;20564;-87
2022/06/20 09:38:38;;;;;;;9.52;1.88;;;;;;;;;;5021786;28;20037;-88
2022/06/20 09:41:25;;;;;;;5.35;1.58;;;;;;;;;;5031565;28;20066;-87
2022/06/20 09:44:09;;;;;;;5.85;1.88;;;;;;;;;;5040392;28;20028;-86
2022/06/20 09:47:06;;;;;;;6.97;1.65;;;;;;;;;;5074125;28;20044;-85
2022/06/20 09:49:46;;;;;;;3.45;1.38;;;;;;;;;;5049716;28;20032;-86
2022/06/20 09:52:27;;;;;;;5.70;1.45;;;;;;;;;;5041067;28;20067;-88
2022/06/20 09:55:04;;;;;;;6.28;1.50;;;;;;;;;;5058429;28;20028;-86
2022/06/20 09:57:38;;;;;;;6.15;1.65;;;;;;;;;;5057116;28;20032;-89
2022/06/20 10:00:19;;;;;;;5.68;1.58;;;;;;;;;;5055586;28;20036;-86
2022/06/20 10:02:56;;;;;;;3.33;1.20;;;;;;;;;;5056583;28;20126;-86
2022/06/20 10:05:51;;;;;;;6.82;2.03;;;;;;;;;;5041072;28;20031;-87
2022/06/20 10:08:23;;;;;;;7.05;1.52;;;;;;;;;;5042900;28;20180;-87
2022/06/20 10:11:04;;;;;;;4.22;1.08;;;;;;;;;;5040631;28;20131;-87
2022/06/20 10:13:39;;;;;;;4.28;1.33;;;;;;;;;;5025422;28;20032;-87
2022/06/20 10:16:16;;;;;;;7.82;1.50;;;;;;;;;;5040787;28;20506;-87
2022/06/20 10:18:58;;;;;;;8.45;2.15;;;;;;;;;;5024807;28;20036;-87
2022/06/20 10:21:37;;;;;;;5.55;1.52;;;;;;;;;;5057290;28;20032;-87
2022/06/20 10:24:19;;;;;;;6.68;1.40;;;;;;;;;;5042277;28;20114;-87
2022/06/20 10:26:48;;;;;;;7.82;1.40;;;;;;;;;;5040182;28;20073;-87
2022/06/20 10:29:29;;;;;;;6.85;1.90;;;;;;;;;;5056824;28;20511;-86
2022/06/20 10:32:16;;;;;;;6.22;1.20;;;;;;;;;;5057353;28;20062;-87
2022/06/20 10:34:59;;;;;;;9.05;1.73;;;;;;;;;;5024019;28;20036;-86
2022/06/20 10:37:37;;;;;;;10.63;1.33;;;;;;;;;;5056913;28;20070;-87
2022/06/20 10:40:29;;;;;;;7.43;1.73;;;;;;;;;;5057896;28;20426;-87
2022/06/20 10:43:08;;;;;;;10.98;1.75;;;;;;;;;;5037650;28;20032;-87
2022/06/20 10:45:46;;;;;;;5.85;1.30;;;;;;;;;;5036999;28;20043;-88
2022/06/20 10:48:30;;;;;;;6.20;1.83;;;;;;;;;;5020543;28;20024;-88
2022/06/20 10:51:17;;;;;;;6.22;1.50;;;;;;;;;;5039486;28;20040;-88
2022/06/20 10:54:18;;;;;;;5.40;1.33;;;;;;;;;;5040525;28;20090;-87
2022/06/20 10:57:12;;;;;;;4.72;1.38;;;;;;;;;;5043249;28;20039;-87
2022/06/20 10:59:47;;;;;;;3.25;0.98;;;;;;;;;;5023621;28;20061;-86
2022/06/20 11:02:50;;;;;;;2.95;1.30;;;;;;;;;;5040754;28;20040;-86
2022/06/20 11:05:41;;;;;;;4.32;1.08;;;;;;;;;;5056908;28;20024;-86
2022/06/20 11:08:42;;;;;;;6.30;1.48;;;;;;;;;;5027059;28;20051;-86
2022/06/20 11:11:14;;;;;;;3.50;0.95;;;;;;;;;;5059535;28;20541;-87
2022/06/20 11:14:13;;;;;;;3.83;1.50;;;;;;;;;;5077147;28;20036;-86
2022/06/20 11:16:53;;;;;;;4.80;1.23;;;;;;;;;;5055211;28;20097;-87
2022/06/20 11:19:20;;;;;;;4.80;1.30;;;;;;;;;;5049239;28;20055;-87
2022/06/20 11:22:26;;;;;;;3.38;0.85;;;;;;;;;;5060174;28;20583;-86
2022/06/20 11:25:09;;;;;;;3.70;1.10;;;;;;;;;;5037732;28;20041;-87
2022/06/20 11:28:01;;;;;;;6.78;1.40;;;;;;;;;;5056490;28;20124;-86
2022/06/20 11:30:49;;;;;;;3.65;0.90;;;;;;;;;;5033553;28;20051;-87
2022/06/20 11:36:19;;;;;;;5.35;1.10;;;;;;;;;;5085359;28;20101;-86
2022/06/20 11:39:08;;;;;;;3.13;0.73;;;;;;;;;;5055157;28;20437;-88
2022/06/20 11:41:39;;;;;;;2.45;0.90;;;;;;;;;;5045334;28;20028;-87
2022/06/20 11:44:26;;;;;;;5.15;0.60;;;;;;;;;;5060182;28;20040;-87
2022/06/20 11:46:54;;;;;;;2.63;0.82;;;;;;;;;;5023588;28;20040;-88
2022/06/20 11:49:48;;;;;;;5.50;1.45;;;;;;;;;;5039979;28;20032;-89
2022/06/20 11:52:21;;;;;;;3.78;0.88;;;;;;;;;;5039865;28;20035;-89
2022/06/20 11:55:13;;;;;;;6.38;0.80;;;;;;;;;;5007669;28;20028;-90
2022/06/20 11:57:53;;;;;;;5.17;0.87;;;;;;;;;;5009575;28;20048;-88
2022/06/20 12:00:21;;;;;;;6.60;2.35;;;;;;;;;;5050769;28;20275;-89
2022/06/20 12:03:22;;;;;;;9.93;6.72;;;;;;;;;;5023273;28;20029;-90
2022/06/20 12:05:54;;;;;;;11.88;6.07;;;;;;;;;;5023139;28;20418;-91
2022/06/20 12:08:25;;;;;;;8.65;4.25;;;;;;;;;;5023118;28;20056;-90
2022/06/20 12:10:57;;;;;;;8.43;3.10;;;;;;;;;;5039814;28;20036;-89
2022/06/20 12:13:48;;;;;;;6.63;2.13;;;;;;;;;;5028934;28;20036;-89
2022/06/20 12:16:26;;;;;;;5.07;2.00;;;;;;;;;;5039444;28;20036;-90
2022/06/20 12:24:46;;;;;;;3.30;1.55;;;;;;;;;;5058637;28;20047;-87
2022/06/20 12:27:16;;;;;;;4.82;1.08;;;;;;;;;;5042493;28;20086;-85
2022/06/20 12:29:43;;;;;;;5.50;1.38;;;;;;;;;;5058189;28;20028;-84
2022/06/20 12:32:34;;;;;;;6.65;1.02;;;;;;;;;;5025579;28;20028;-85
2022/06/20 12:35:09;;;;;;;4.85;1.20;;;;;;;;;;5048858;28;20503;-86
2022/06/20 12:37:45;;;;;;;4.40;1.50;;;;;;;;;;5037778;28;20044;-85
2022/06/20 12:40:10;;;;;;;4.82;1.85;;;;;;;;;;5030372;28;20557;-86
2022/06/20 12:43:09;;;;;;;4.45;1.40;;;;;;;;;;5056296;28;20123;-85
2022/06/20 12:46:00;;;;;;;2.58;0.80;;;;;;;;;;5026593;28;20039;-87
2022/06/20 12:48:47;;;;;;;4.97;1.88;;;;;;;;;;5038248;28;20020;-85
2022/06/20 12:51:48;;;;;;;3.47;1.38;;;;;;;;;;5054808;28;20032;-84
2022/06/20 12:54:31;;;;;;;4.82;1.10;;;;;;;;;;4990898;28;20084;-84
2022/06/20 12:57:25;;;;;;;3.38;1.02;;;;;;;;;;5016739;28;20523;-86
2022/06/20 13:00:14;;;;;;;4.38;1.35;;;;;;;;;;5054260;28;20029;-86
2022/06/20 13:02:51;;;;;;;4.25;1.38;;;;;;;;;;5038068;28;20078;-84
2022/06/20 13:05:35;;;;;;;3.58;1.35;;;;;;;;;;5054647;28;20036;-84
2022/06/20 13:08:14;;;;;;;8.52;1.67;;;;;;;;;;5054227;28;20052;-85
2022/06/20 13:11:20;;;;;;;3.40;0.77;;;;;;;;;;5054722;28;20075;-85
2022/06/20 13:14:13;;;;;;;2.38;0.98;;;;;;;;;;5008611;28;20039;-86
2022/06/20 13:16:47;;;;;;;5.22;1.77;;;;;;;;;;5039563;28;20051;-86
2022/06/20 13:19:28;;;;;;;9.25;3.33;;;;;;;;;;5052197;28;20153;-86
2022/06/20 13:22:03;;;;;;;12.25;4.38;;;;;;;;;;5037981;28;20032;-86
2022/06/20 13:25:11;;;;;;;12.35;4.20;;;;;;;;;;5033056;28;20071;-88
2022/06/20 13:27:55;;;;;;;6.78;3.22;;;;;;;;;;5038447;28;20039;-88
2022/06/20 13:30:49;;;;;;;7.10;3.55;;;;;;;;;;5054476;28;20028;-88
2022/06/20 13:33:36;;;;;;;5.35;2.70;;;;;;;;;;5006078;28;20053;-88
2022/06/20 13:36:11;;;;;;;10.70;3.45;;;;;;;;;;5041659;28;20047;-88
2022/06/20 13:38:47;;;;;;;6.45;2.85;;;;;;;;;;5040899;28;20036;-88
2022/06/20 13:41:39;;;;;;;7.78;3.17;;;;;;;;;;5025230;28;20493;-89
2022/06/20 13:44:23;;;;;;;7.68;2.17;;;;;;;;;;4995902;28;20097;-88
2022/06/20 13:47:02;;;;;;;5.18;2.38;;;;;;;;;;5037964;28;20537;-89
2022/06/20 13:49:32;;;;;;;8.40;2.20;;;;;;;;;;5037661;28;20032;-90
2022/06/20 13:52:24;;;;;;;6.03;2.35;;;;;;;;;;5038220;28;20051;-88
2022/06/20 13:54:54;;;;;;;4.88;1.88;;;;;;;;;;5037995;28;20078;-88
2022/06/20 13:57:33;;;;;;;8.57;1.85;;;;;;;;;;5038447;28;20091;-91
2022/06/20 13:59:58;;;;;;;7.65;1.92;;;;;;;;;;5038066;28;20037;-89
2022/06/20 14:02:41;;;;;;;7.13;1.92;;;;;;;;;;5036933;28;20249;-84
2022/06/20 14:05:12;;;;;;;6.03;1.48;;;;;;;;;;5037926;28;20038;-86
2022/06/20 14:07:38;;;;;;;4.72;1.60;;;;;;;;;;5021600;28;20060;-84
2022/06/20 14:10:03;;;;;;;8.10;1.80;;;;;;;;;;5004108;28;20045;-87
2022/06/20 14:12:35;;;;;;;5.53;1.00;;;;;;;;;;5019759;28;20029;-81
2022/06/20 14:15:16;;;;;;;4.80;0.63;;;;;;;;;;5044409;28;20044;-82
2022/06/20 14:17:41;;;;;;;13.38;1.27;;;;;;;;;;5038359;28;20035;-81
2022/06/20 14:20:08;;;;;;;3.92;1.02;;;;;;;;;;5034064;28;20444;-82
2022/06/20 14:22:43;;;;;;;2.40;0.70;;;;;;;;;;5056631;28;20040;-82
2022/06/20 14:25:44;;;;;;;1.13;0.57;;;;;;;;;;5023132;28;20081;-82
2022/06/20 14:28:29;;;;;;;5.07;1.05;;;;;;;;;;5024068;28;20074;-83
2022/06/20 14:31:14;;;;;;;2.85;1.42;;;;;;;;;;5043338;28;20039;-84
2022/06/20 14:33:49;;;;;;;2.97;1.33;;;;;;;;;;5061887;28;20043;-85
2022/06/20 14:36:32;;;;;;;3.80;0.98;;;;;;;;;;5060755;28;20040;-84
2022/06/20 14:39:12;;;;;;;2.15;0.90;;;;;;;;;;5061927;28;20055;-85
2022/06/20 14:41:52;;;;;;;2.47;0.90;;;;;;;;;;5028586;28;20523;-84
2022/06/20 14:44:26;;;;;;;5.70;1.50;;;;;;;;;;5061798;28;20066;-82
2022/06/20 14:46:58;;;;;;;2.75;1.08;;;;;;;;;;5040760;28;20032;-83
2022/06/20 14:49:37;;;;;;;3.85;1.25;;;;;;;;;;5039995;28;20170;-83
2022/06/20 14:52:27;;;;;;;4.25;0.98;;;;;;;;;;5040176;28;20163;-83
2022/06/20 14:55:33;;;;;;;3.83;1.58;;;;;;;;;;5005656;28;20036;-82
2022/06/20 14:58:20;;;;;;;4.00;0.98;;;;;;;;;;5027239;28;20052;-84
2022/06/20 15:00:56;;;;;;;4.03;1.20;;;;;;;;;;5041415;28;20119;-83
2022/06/20 15:03:49;;;;;;;2.78;1.60;;;;;;;;;;5040019;28;20031;-84
2022/06/20 15:06:28;;;;;;;3.05;1.33;;;;;;;;;;5056448;28;20036;-83
2022/06/20 15:09:15;;;;;;;5.93;2.45;;;;;;;;;;5040140;28;20043;-85
2022/06/20 15:12:05;;;;;;;9.18;3.40;;;;;;;;;;5056214;28;20029;-85
2022/06/20 15:14:35;;;;;;;5.38;2.00;;;;;;;;;;5034342;28;20081;-82
2022/06/20 15:17:07;;;;;;;4.95;1.75;;;;;;;;;;5044094;28;20055;-84
2022/06/20 15:19:54;;;;;;;6.95;2.35;;;;;;;;;;5027078;28;20040;-84
2022/06/20 15:22:24;;;;;;;5.22;1.50;;;;;;;;;;5076230;28;20089;-90
2022/06/20 15:24:54;;;;;;;4.20;1.40;;;;;;;;;;5039645;28;20032;-90
2022/06/20 15:27:34;;;;;;;4.43;1.20;;;;;;;;;;5023887;28;20070;-88
2022/06/20 15:30:06;;;;;;;4.55;1.35;;;;;;;;;;5006772;28;20032;-88
2022/06/20 15:32:36;;;;;;;6.03;1.70;;;;;;;;;;5056401;28;20055;-83
2022/06/20 15:38:21;;;;;;;3.65;1.50;;;;;;;;;;5033346;28;20044;-82
2022/06/20 15:40:54;;;;;;;4.40;0.90;;;;;;;;;;5046736;28;20035;-82
2022/06/20 15:43:31;;;;;;;4.72;1.40;;;;;;;;;;5059330;28;20028;-82
2022/06/20 15:45:58;;;;;;;3.00;0.85;;;;;;;;;;5057850;28;20461;-82
2022/06/20 15:48:27;;;;;;;4.20;1.10;;;;;;;;;;5059072;28;20044;-83
2022/06/20 15:51:27;;;;;;;3.17;1.35;;;;;;;;;;5058924;28;20413;-82
2022/06/20 15:54:14;;;;;;;4.22;1.42;;;;;;;;;;5052920;28;20071;-82
2022/06/20 15:56:53;;;;;;;5.20;1.20;;;;;;;;;;5042396;28;20036;-83
2022/06/20 15:59:21;;;;;;;3.85;1.25;;;;;;;;;;5075660;28;20510;-82